Ouray, CO (81427)

6:15 PM MDT on August 27, 2014 (GMT -0600)
Ouray | Change Station
CLOSE
Current Station
Personal Weather Station
Location: Ouray, CO
Elevation: 7736 ft
Nearby Weather Stations
Active Advisory: Special Statement Active Notice: Public Information Statement

Elev 7736 ft 38.03 °N, 107.67 °W | Updated 20 seconds ago

Overcast
Overcast
51.8 °F
Feels Like 51.8 °F
N
0.0
Wind Variable Wind from NNW
Gusts 6.0 mph

Today
High -- | Low -- °F
--% Chance of Precip.
Yesterday
High -- | Low -- °F
Precip. -- in
6:36 AM 7:47 PM
Waxing Crescent, 5% visible
Pressure 30.49 in
Visibility 7.0 miles
Clouds Scattered Clouds 2100 ft
Mostly Cloudy 3000 ft
Overcast 7500 ft
Dew Point 44 °F
Humidity 75%
Rainfall 0.11 in
Snow Depth Not available.
UV 1 out of 12
Pollen 6.00 out of 12
Air Quality Not available.
Flu Activity Not available.
METAR KTEX 272356Z AUTO 27013G18KT 7SM RA SCT021 BKN030 OVC075 08/06 A3049 RMK AO2 LTG DSNT N E AND S

More Conditions Fewer Conditions

Pressure 30.49 in
Visibility 7.0 miles
Clouds Scattered Clouds 2100 ft
Mostly Cloudy 3000 ft
Overcast 7500 ft
Dew Point 44 °F
Humidity 75%
Rainfall 0.11 in
Snow Depth Not available.
UV 1 out of 12
Pollen 6.00 out of 12
Air Quality Not available.
Flu Activity Not available.
METAR KTEX 272356Z AUTO 27013G18KT 7SM RA SCT021 BKN030 OVC075 08/06 A3049 RMK AO2 LTG DSNT N E AND S

More Conditions Fewer Conditions

10-Day Weather Forecast

Almanac

Astronomy

Aug. 27, 2014 Rise Set
Actual Time 6:36 AM MDT 7:47 PM MDT
Civil Twilight 6:09 AM MDT 8:14 PM MDT
Nautical Twilight 5:36 AM MDT 8:47 PM MDT
Astronomical Twilight 5:02 AM MDT 9:20 PM MDT
Moon 8:32 AM MDT (8/27) 8:44 PM MDT (8/27)
Length of Visible Light 14h 05m
Length of Day
13h 11m
Tomorrow will be 2m 18s shorter.
Waxing Crescent, 5% of the Moon is Illuminated
Today
Waxing Crescent
Sep 2
First Quarter
Sep 8
Full
Sep 15
Last Quarter
Sep 24
New

Today's Extremes

State Highs State Lows

Community

WunderPhotos

Upload Photos

1,747,830 photos uploaded!

Nearby

Snow Depth

Station Depth Elevation
El Diente Peak 0 in 10200 ft
Slumgullion 0 in 11440 ft
Lone Cone 10 in 9600 ft
Cascade 0 in 8880 ft
Stump Lakes 0 in 11200 ft

Earthquake Activity

City Distance Mag. Time & Date
No recent earthquake activity has been reported nearby.
Minimum magnitude displayed is 2.5.

Coastal Water Temperatures

Place Temperature
No Stations Reporting

Nearby Weather Stations